Currently 48°F in Temecula, California, USA
48°F
54°F / 48°F
9 mph SW
0.00"
Monday, February 19, 2018 5:39 AM PST

Temecula, California Weather Summary
Last 36 Hours

Temperature Winds Hourly Humidity Dewpoint
Time Report Norm Report Norm Max Gusts Precip. Rpt. Norm Rpt. Norm Pressure
1,3Mon 05:39 AM  48.3°F  45°F  9 mph SW  1 mph  15 mph  0.00"  82%  91%  43°F  42°F  29.91"
Mon 05:00 AM  49.0°F  45°F  7 mph SW  1 mph  16 mph  0.00"  80%  90%  43°F  42°F  29.91"
Mon 04:00 AM  49.2°F  46°F  6 mph SW  1 mph  21 mph  0.00"  85%  89%  45°F  43°F  29.90"
Mon 03:00 AM  50.1°F  46°F  7 mph SW  1 mph  18 mph  0.00"  85%  88%  46°F  43°F  29.90"
Mon 02:00 AM  50.8°F  47°F  9 mph SW  1 mph  21 mph  0.00"  85%  87%  46°F  43°F  29.91"
Mon 01:00 AM  52.7°F  48°F  10 mph SW  1 mph  21 mph  0.00"  88%  86%  49°F  44°F  29.91"
2Mon 12:00 AM  53.5°F  49°F  8 mph SW  1 mph  22 mph  0.00"  85%  85%  49°F  44°F  29.92"
Sun 11:00 PM  53.6°F  50°F  5 mph SW  2 mph  20 mph  0.00"  81%  83%  48°F  45°F  29.92"
Sun 10:00 PM  53.2°F  51°F  9 mph S  2 mph  18 mph  0.00"  81%  81%  47°F  45°F  29.93"
Sun 09:00 PM  53.2°F  53°F  7 mph SW  2 mph  19 mph  0.00"  84%  78%  48°F  46°F  29.95"
Sun 08:00 PM  54.0°F  54°F  9 mph SW  3 mph  24 mph  0.00"  87%  75%  50°F  46°F  29.95"
Sun 07:00 PM  55.1°F  56°F  5 mph SW  3 mph  16 mph  0.00"  84%  71%  50°F  46°F  29.95"
Sun 06:00 PM  57.0°F  58°F  9 mph SW  4 mph  16 mph  0.00"  72%  67%  48°F  47°F  29.94"
Sun 05:00 PM  61.2°F  62°F  8 mph SW  5 mph  19 mph  0.00"  59%  60%  46°F  47°F  29.94"
Sun 04:00 PM  63.4°F  64°F  8 mph SW  7 mph  25 mph  0.00"  44%  54%  40°F  47°F  29.91"
Sun 03:00 PM  65.7°F  66°F  12 mph SW  7 mph  20 mph  0.00"  46%  50%  44°F  46°F  29.91"
Sun 02:00 PM  68.5°F  67°F  9 mph SW  6 mph  21 mph  0.00"  42%  49%  44°F  46°F  29.93"
Sun 01:00 PM  67.8°F  66°F  9 mph SW  6 mph  17 mph  0.00"  42%  50%  43°F  46°F  29.96"
Sun 12:00 PM  66.9°F  64°F  8 mph SW  5 mph  16 mph  0.00"  42%  54%  42°F  46°F  30.02"
Sun 11:00 AM  64.8°F  60°F  7 mph W  4 mph  13 mph  0.00"  48%  61%  44°F  46°F  30.04"
Sun 10:00 AM  56.4°F  56°F  calm  3 mph  3 mph  0.00"  53%  72%  39°F  46°F  30.06"
Sun 09:00 AM  48.1°F  50°F  calm  2 mph  none  0.00"  65%  83%  36°F  45°F  30.06"
Sun 08:00 AM  42.1°F  46°F  calm  1 mph  none  0.00"  77%  90%  35°F  43°F  30.06"
Sun 07:00 AM  40.7°F  45°F  calm  1 mph  none  0.00"  79%  91%  34°F  42°F  30.07"
Sun 06:00 AM  41.2°F  45°F  calm  1 mph  none  0.00"  76%  91%  34°F  42°F  30.07"
Sun 05:00 AM  42.2°F  45°F  calm  1 mph  none  0.00"  73%  90%  34°F  42°F  30.07"
Sun 04:00 AM  43.5°F  46°F  calm  1 mph  none  0.00"  72%  89%  35°F  43°F  30.07"
Sun 03:00 AM  44.7°F  47°F  calm  1 mph  none  0.00"  68%  88%  34°F  43°F  30.09"
Sun 02:00 AM  46.7°F  47°F  calm  1 mph  2 mph  0.00"  64%  87%  35°F  43°F  30.09"
Sun 01:00 AM  47.9°F  48°F  calm  1 mph  none  0.00"  62%  85%  35°F  44°F  30.10"
Sun 12:00 AM  49.8°F  49°F  calm  1 mph  none  0.00"  58%  84%  35°F  44°F  30.10"
Sat 11:00 PM  51.7°F  50°F  calm  2 mph  2 mph  0.00"  56%  82%  36°F  45°F  30.11"
Sat 10:00 PM  54.1°F  52°F  2 mph E  2 mph  5 mph  0.00"  50%  80%  35°F  45°F  30.10"
Sat 09:00 PM  58.1°F  53°F  2 mph SE  2 mph  7 mph  0.00"  42%  77%  34°F  46°F  30.10"
Sat 08:00 PM  59.6°F  54°F  4 mph S  3 mph  8 mph  0.00"  39%  74%  34°F  46°F  30.10"
Sat 07:00 PM  61.8°F  56°F  calm  3 mph  10 mph  0.00"  36%  70%  34°F  46°F  30.09"
Sat 06:00 PM  64.9°F  58°F  4 mph S  4 mph  12 mph  0.00"  33%  66%  34°F  47°F  30.09"

  1. Current weather data. No green row appears if the current weather data is also the high or low for the current day.
  2. High temperature for the current day.
  3. Low temperature for the current day.

The Temecula weather pages are a service of WeatherCurrents. Temecula, California is located in the Temecula Valley, in southwestern Riverside County, along the Interstate 15 highway. The Temecula Valley's rolling hills are home to the Temecula wine country, vineyards, golf courses, a casino resort, and Old Town Temecula.
Copyright ©Mon Feb 19 05:39:37 PST 2018  WeatherCurrents. All rights reserved. - Submit questions and comments - Privacy Policy

This page automatically refreshes every 10 minutes.